createdAt,value
2023-02-02T00:00:49.569Z,49.18
2023-02-02T00:03:17.905Z,49.00
2023-02-02T00:05:49.294Z,49.09
2023-02-02T00:08:16.596Z,49.41
2023-02-02T00:10:44.829Z,49.38
2023-02-02T00:13:12.025Z,49.08
2023-02-02T00:15:38.998Z,49.32
2023-02-02T00:18:06.845Z,49.52
2023-02-02T00:20:35.165Z,49.13
2023-02-02T00:23:02.735Z,49.43
2023-02-02T00:25:30.235Z,48.93
2023-02-02T00:27:57.197Z,49.06
2023-02-02T00:30:24.331Z,49.26
2023-02-02T00:32:53.007Z,49.17
2023-02-02T00:35:20.327Z,49.37
2023-02-02T00:37:48.575Z,49.30
2023-02-02T00:40:15.690Z,49.01
2023-02-02T00:42:43.413Z,49.23
2023-02-02T00:45:17.257Z,49.41
2023-02-02T00:47:47.174Z,49.66
2023-02-02T00:50:17.723Z,49.37
2023-02-02T00:52:45.377Z,49.36
2023-02-02T00:55:15.603Z,49.71
2023-02-02T00:57:44.173Z,50.08
2023-02-02T01:00:16.043Z,50.42
2023-02-02T01:02:43.355Z,50.25
2023-02-02T01:05:12.045Z,50.38
2023-02-02T01:07:39.229Z,50.79
2023-02-02T01:10:10.774Z,50.77
2023-02-02T01:12:38.943Z,50.48
2023-02-02T01:15:07.532Z,50.93
2023-02-02T01:17:34.637Z,51.20
2023-02-02T01:20:01.627Z,51.22
2023-02-02T01:22:28.536Z,51.27
2023-02-02T01:24:55.416Z,51.19
2023-02-02T01:27:22.296Z,51.16
2023-02-02T01:29:50.465Z,51.59
2023-02-02T01:32:17.448Z,52.07
2023-02-02T01:34:44.411Z,51.91
2023-02-02T01:37:11.564Z,51.67
2023-02-02T01:39:38.414Z,51.59
2023-02-02T01:42:14.067Z,52.03
2023-02-02T01:45:12.939Z,52.02
2023-02-02T01:47:47.381Z,51.92
2023-02-02T01:50:17.526Z,51.98
2023-02-02T01:52:49.859Z,52.36
2023-02-02T01:55:23.012Z,52.02
2023-02-02T01:57:56.763Z,51.87
2023-02-02T02:00:27.542Z,51.91
2023-02-02T02:02:59.866Z,52.39
2023-02-02T02:05:31.947Z,51.90
2023-02-02T02:08:11.888Z,52.23
2023-02-02T02:10:38.985Z,52.32
2023-02-02T02:13:06.880Z,52.02
2023-02-02T02:16:02.400Z,52.21
2023-02-02T02:18:44.281Z,52.09
2023-02-02T02:21:53.619Z,51.99
2023-02-02T02:25:44.005Z,52.25
2023-02-02T02:29:03.464Z,52.59
2023-02-02T02:32:04.612Z,52.81
2023-02-02T02:34:48.388Z,52.30
2023-02-02T02:37:27.525Z,52.85
2023-02-02T02:40:02.525Z,53.00
2023-02-02T02:42:36.339Z,53.16
2023-02-02T02:45:07.500Z,52.81
2023-02-02T02:47:37.298Z,52.67
2023-02-02T02:50:05.917Z,52.88
2023-02-02T02:52:34.640Z,53.40
2023-02-02T02:55:05.407Z,52.87
2023-02-02T02:57:56.650Z,52.88
2023-02-02T03:00:46.221Z,52.73
2023-02-02T03:03:33.357Z,53.36
2023-02-02T03:06:12.387Z,53.41
2023-02-02T03:08:43.921Z,53.12
2023-02-02T03:11:14.110Z,53.21
2023-02-02T03:13:42.830Z,53.07
2023-02-02T03:16:10.315Z,52.87
2023-02-02T03:18:39.430Z,52.94
2023-02-02T03:21:06.751Z,53.31
2023-02-02T03:23:34.377Z,53.12
2023-02-02T03:26:01.813Z,53.01
2023-02-02T03:28:29.421Z,52.87
2023-02-02T03:31:01.178Z,52.59
2023-02-02T03:33:28.514Z,52.94
2023-02-02T03:35:56.665Z,53.15
2023-02-02T03:38:23.560Z,52.80
2023-02-02T03:40:51.381Z,52.67
2023-02-02T03:43:21.450Z,53.00
2023-02-02T03:45:48.607Z,53.49
2023-02-02T03:48:15.497Z,53.03
2023-02-02T03:50:42.347Z,53.17
2023-02-02T03:53:10.558Z,53.34
2023-02-02T03:55:40.394Z,53.63
2023-02-02T03:58:07.501Z,53.64
2023-02-02T04:00:34.550Z,53.65
2023-02-02T04:03:01.566Z,54.14
2023-02-02T04:05:28.602Z,53.91
2023-02-02T04:07:55.611Z,54.10
2023-02-02T04:10:23.829Z,54.51
2023-02-02T04:12:50.936Z,54.12
2023-02-02T04:15:18.240Z,54.29
2023-02-02T04:17:45.147Z,54.59
2023-02-02T04:20:12.533Z,54.46
2023-02-02T04:22:39.432Z,54.65
2023-02-02T04:25:07.604Z,54.36
2023-02-02T04:27:35.915Z,54.45
2023-02-02T04:30:03.381Z,54.97
2023-02-02T04:32:30.450Z,54.36
2023-02-02T04:34:57.339Z,54.75
2023-02-02T04:37:24.424Z,54.57
2023-02-02T04:39:51.295Z,55.31
2023-02-02T04:42:18.241Z,54.40
2023-02-02T04:44:46.522Z,54.82
2023-02-02T04:47:13.453Z,55.18
2023-02-02T04:49:40.351Z,55.25
2023-02-02T04:52:07.380Z,54.61
2023-02-02T04:54:34.504Z,54.94
2023-02-02T04:57:01.429Z,54.74
2023-02-02T04:59:29.936Z,54.59
2023-02-02T05:02:00.038Z,55.15
2023-02-02T05:04:27.417Z,55.02
2023-02-02T05:06:54.433Z,54.99
2023-02-02T05:09:21.353Z,55.26
2023-02-02T05:11:48.260Z,54.65
2023-02-02T05:14:18.308Z,54.83
2023-02-02T05:16:45.450Z,54.70
2023-02-02T05:19:16.697Z,55.13
2023-02-02T05:21:44.719Z,54.91
2023-02-02T05:24:12.474Z,54.99
2023-02-02T05:26:39.562Z,55.28
2023-02-02T05:29:07.500Z,54.65
2023-02-02T05:31:34.576Z,54.74
2023-02-02T05:34:01.820Z,55.16
2023-02-02T05:36:30.082Z,54.88
2023-02-02T05:38:56.987Z,54.69
2023-02-02T05:41:23.966Z,55.05
2023-02-02T05:43:50.800Z,54.86
2023-02-02T05:46:17.699Z,54.56
2023-02-02T05:48:44.657Z,54.63
2023-02-02T05:51:16.929Z,54.45
2023-02-02T05:53:45.356Z,54.76
2023-02-02T05:56:13.094Z,55.27
2023-02-02T05:58:40.017Z,55.51
2023-02-02T06:01:07.090Z,55.39
2023-02-02T06:03:34.354Z,55.20
2023-02-02T06:06:01.556Z,55.20
2023-02-02T06:08:28.445Z,55.78
2023-02-02T06:10:56.621Z,55.20
2023-02-02T06:13:23.550Z,55.76
2023-02-02T06:15:50.423Z,56.17
2023-02-02T06:18:17.436Z,55.87
2023-02-02T06:20:46.127Z,55.72
2023-02-02T06:23:13.033Z,55.84
2023-02-02T06:25:39.927Z,56.20
2023-02-02T06:28:09.379Z,55.75
2023-02-02T06:30:36.291Z,56.61
2023-02-02T06:33:03.267Z,56.09
2023-02-02T06:35:30.279Z,56.44
2023-02-02T06:37:58.140Z,56.26
2023-02-02T06:40:25.167Z,56.24
2023-02-02T06:42:57.145Z,55.95
2023-02-02T06:45:26.326Z,56.60
2023-02-02T06:47:54.054Z,56.41
2023-02-02T06:50:20.961Z,56.43
2023-02-02T06:52:48.770Z,56.68
2023-02-02T06:55:16.826Z,57.17
2023-02-02T06:57:43.794Z,56.71
2023-02-02T07:00:13.276Z,56.79
2023-02-02T07:02:45.706Z,56.52
2023-02-02T07:05:12.622Z,57.30
2023-02-02T07:07:39.533Z,57.34
2023-02-02T07:10:07.666Z,57.26
2023-02-02T07:12:34.546Z,57.36
2023-02-02T07:15:01.577Z,57.17
2023-02-02T07:17:28.755Z,57.03
2023-02-02T07:19:56.974Z,57.09
2023-02-02T07:22:23.981Z,57.09
2023-02-02T07:24:50.872Z,57.42
2023-02-02T07:27:17.828Z,57.16
2023-02-02T07:29:45.351Z,57.17
2023-02-02T07:32:13.317Z,57.47
2023-02-02T07:34:42.280Z,57.19
2023-02-02T07:37:10.942Z,57.28
2023-02-02T07:39:40.077Z,57.21
2023-02-02T07:42:08.520Z,57.52
2023-02-02T07:44:36.449Z,57.31
2023-02-02T07:47:03.347Z,57.50
2023-02-02T07:49:31.458Z,57.40
2023-02-02T07:51:58.405Z,57.08
2023-02-02T07:54:26.631Z,57.55
2023-02-02T07:56:53.553Z,57.24
2023-02-02T07:59:20.852Z,57.04
2023-02-02T08:01:47.885Z,57.27
2023-02-02T08:04:15.593Z,57.55
2023-02-02T08:06:42.537Z,57.31
2023-02-02T08:09:10.190Z,57.11
2023-02-02T08:11:39.051Z,57.24
2023-02-02T08:14:06.885Z,56.90
2023-02-02T08:16:34.614Z,57.11
2023-02-02T08:19:01.901Z,56.91
2023-02-02T08:21:28.945Z,56.87
2023-02-02T08:23:56.439Z,56.76
2023-02-02T08:26:26.149Z,57.25
2023-02-02T08:28:58.072Z,56.74
2023-02-02T08:31:29.227Z,57.07
2023-02-02T08:33:58.462Z,56.40
2023-02-02T08:36:28.360Z,56.29
2023-02-02T08:38:55.699Z,56.32
2023-02-02T08:41:25.389Z,56.25
2023-02-02T08:43:53.721Z,56.03
2023-02-02T08:46:21.916Z,55.76
2023-02-02T08:48:49.450Z,55.65
2023-02-02T08:51:19.693Z,55.71
2023-02-02T08:53:47.872Z,55.28
2023-02-02T08:56:17.977Z,55.00
2023-02-02T08:58:46.650Z,55.18
2023-02-02T09:01:18.379Z,54.80
2023-02-02T09:03:45.828Z,54.81
2023-02-02T09:06:15.810Z,54.63
2023-02-02T09:08:43.615Z,54.50
2023-02-02T09:11:14.032Z,54.12
2023-02-02T09:13:45.409Z,53.85
2023-02-02T09:16:16.451Z,53.56
2023-02-02T09:18:44.809Z,53.42
2023-02-02T09:21:14.943Z,53.31
2023-02-02T09:23:44.401Z,53.20
2023-02-02T09:26:14.392Z,52.97
2023-02-02T09:28:43.937Z,52.88
2023-02-02T09:31:11.676Z,52.75
2023-02-02T09:33:40.999Z,52.39
2023-02-02T09:36:11.369Z,52.55
2023-02-02T09:38:40.233Z,52.48
2023-02-02T09:41:42.235Z,52.41
2023-02-02T09:44:21.757Z,52.60
2023-02-02T09:47:00.991Z,52.43
2023-02-02T09:49:41.311Z,51.46
2023-02-02T09:52:16.230Z,51.37
2023-02-02T09:54:48.286Z,51.07
2023-02-02T09:57:24.669Z,50.53
2023-02-02T09:59:54.375Z,49.98
2023-02-02T10:02:27.212Z,48.97
2023-02-02T10:05:11.818Z,47.96
2023-02-02T10:07:45.743Z,48.30
2023-02-02T10:10:21.419Z,47.66
2023-02-02T10:12:56.238Z,47.25
2023-02-02T10:15:37.173Z,46.44
2023-02-02T10:18:18.338Z,46.67
2023-02-02T10:20:56.225Z,45.86
2023-02-02T10:23:29.037Z,45.63
2023-02-02T10:26:04.325Z,45.52
2023-02-02T10:28:44.404Z,44.94
2023-02-02T10:31:29.659Z,44.42
2023-02-02T10:34:09.777Z,43.74
2023-02-02T10:37:07.832Z,43.50
2023-02-02T10:39:54.669Z,43.05
2023-02-02T10:42:33.971Z,42.31
2023-02-02T10:45:10.784Z,42.46
2023-02-02T10:47:38.492Z,42.53
2023-02-02T10:50:18.782Z,42.86
2023-02-02T10:52:53.289Z,43.29
2023-02-02T10:55:32.583Z,44.00
2023-02-02T10:58:15.526Z,44.30
2023-02-02T11:00:51.321Z,45.01
2023-02-02T11:03:22.860Z,45.23
2023-02-02T11:06:08.798Z,45.47
2023-02-02T11:08:42.530Z,46.06
2023-02-02T11:11:13.349Z,46.18
2023-02-02T11:13:48.225Z,46.62
2023-02-02T11:16:32.674Z,46.85
2023-02-02T11:19:23.868Z,47.63
2023-02-02T11:21:54.233Z,47.78
2023-02-02T11:24:27.598Z,47.53
2023-02-02T11:27:00.096Z,47.98
2023-02-02T11:29:31.326Z,47.46
2023-02-02T11:31:58.816Z,47.43
2023-02-02T11:34:28.360Z,46.35
2023-02-02T11:37:13.902Z,45.29
2023-02-02T11:39:44.044Z,44.80
2023-02-02T11:42:16.678Z,44.27
2023-02-02T11:44:48.578Z,44.00
2023-02-02T11:47:24.691Z,44.25
2023-02-02T11:49:55.781Z,44.03
2023-02-02T11:52:32.310Z,44.74
2023-02-02T11:55:14.539Z,45.18
2023-02-02T11:58:17.243Z,45.32
2023-02-02T12:00:47.835Z,45.78
2023-02-02T12:03:26.937Z,46.38
2023-02-02T12:05:54.243Z,46.56
2023-02-02T12:08:22.140Z,46.74
2023-02-02T12:10:59.333Z,47.05
2023-02-02T12:14:02.852Z,46.95
2023-02-02T12:16:53.689Z,47.69
2023-02-02T12:19:47.474Z,47.77
2023-02-02T12:22:35.578Z,47.69
2023-02-02T12:25:24.285Z,47.70
2023-02-02T12:28:05.584Z,48.29
2023-02-02T12:30:41.432Z,48.20
2023-02-02T12:33:30.541Z,48.34
2023-02-02T12:36:26.112Z,48.29
2023-02-02T12:39:23.081Z,48.31
2023-02-02T12:42:23.606Z,48.59
2023-02-02T12:45:19.575Z,48.62
2023-02-02T12:48:01.853Z,48.50
2023-02-02T12:50:39.624Z,48.48
2023-02-02T12:53:39.685Z,48.68
2023-02-02T12:56:22.768Z,48.50
2023-02-02T12:59:04.653Z,48.51
2023-02-02T13:01:59.990Z,48.19
2023-02-02T13:04:51.953Z,48.16
2023-02-02T13:07:38.390Z,47.93
2023-02-02T13:10:17.333Z,47.92
2023-02-02T13:12:53.721Z,47.24
2023-02-02T13:15:24.763Z,46.78
2023-02-02T13:17:57.073Z,46.45
2023-02-02T13:20:37.215Z,46.59
2023-02-02T13:23:11.236Z,45.73
2023-02-02T13:25:47.015Z,45.04
2023-02-02T13:28:27.989Z,44.77
2023-02-02T13:31:01.313Z,45.10
2023-02-02T13:33:35.945Z,45.01
2023-02-02T13:36:14.876Z,45.31
2023-02-02T13:38:42.489Z,45.34
2023-02-02T13:41:16.812Z,45.43
2023-02-02T13:43:54.400Z,45.68
2023-02-02T13:46:33.274Z,45.91
2023-02-02T13:49:13.257Z,45.70
2023-02-02T13:51:53.616Z,46.28
2023-02-02T13:55:16.002Z,46.26
2023-02-02T13:58:26.824Z,46.10
2023-02-02T14:01:01.771Z,46.43
2023-02-02T14:03:40.319Z,46.64
2023-02-02T14:06:18.919Z,46.74
2023-02-02T14:08:52.665Z,46.98
2023-02-02T14:11:27.253Z,46.83
2023-02-02T14:14:18.243Z,46.83
2023-02-02T14:16:50.221Z,47.02
2023-02-02T14:19:55.362Z,46.68
2023-02-02T14:22:45.531Z,46.65
2023-02-02T14:25:51.522Z,46.89
2023-02-02T14:28:42.945Z,46.79
2023-02-02T14:31:53.147Z,46.89
2023-02-02T14:34:34.933Z,46.79
2023-02-02T14:37:47.324Z,46.75
2023-02-02T14:40:39.078Z,46.92
2023-02-02T14:43:40.573Z,46.96
2023-02-02T14:46:34.834Z,47.02
2023-02-02T14:49:24.063Z,47.37
2023-02-02T14:51:57.946Z,47.41
2023-02-02T14:54:36.045Z,47.74
2023-02-02T14:57:21.172Z,47.74
2023-02-02T14:59:49.656Z,48.09
2023-02-02T15:02:21.916Z,48.23
2023-02-02T15:04:49.626Z,48.63
2023-02-02T15:07:51.299Z,48.52
2023-02-02T15:11:02.035Z,48.70
2023-02-02T15:13:44.632Z,49.04
2023-02-02T15:16:31.945Z,49.20
2023-02-02T15:19:37.702Z,49.32
2023-02-02T15:22:30.275Z,49.20
2023-02-02T15:25:05.080Z,49.37
2023-02-02T15:27:51.380Z,49.29
2023-02-02T15:30:27.041Z,49.51
2023-02-02T15:32:56.064Z,49.60
2023-02-02T15:35:30.096Z,49.43
2023-02-02T15:38:01.334Z,49.57
2023-02-02T15:40:32.169Z,49.65
2023-02-02T15:43:06.131Z,49.49
2023-02-02T15:45:43.532Z,49.37
2023-02-02T15:48:22.141Z,49.96
2023-02-02T15:50:56.764Z,49.81
2023-02-02T15:53:27.674Z,49.63
2023-02-02T15:55:57.383Z,50.13
2023-02-02T15:58:32.300Z,50.21
2023-02-02T16:01:04.233Z,50.35
2023-02-02T16:03:41.915Z,50.40
2023-02-02T16:06:09.852Z,50.52
2023-02-02T16:08:39.697Z,50.79
2023-02-02T16:11:11.983Z,50.63
2023-02-02T16:13:43.880Z,50.95
2023-02-02T16:16:24.482Z,51.07
2023-02-02T16:19:15.588Z,51.05
2023-02-02T16:21:50.925Z,51.17
2023-02-02T16:24:24.263Z,51.19
2023-02-02T16:26:54.280Z,51.28
2023-02-02T16:29:24.388Z,51.37
2023-02-02T16:31:51.592Z,51.50
2023-02-02T16:34:47.033Z,51.76
2023-02-02T16:37:17.016Z,51.83
2023-02-02T16:39:45.654Z,51.93
2023-02-02T16:42:25.536Z,51.99
2023-02-02T16:44:53.159Z,52.51
2023-02-02T16:47:34.761Z,52.43
2023-02-02T16:50:26.655Z,52.66
2023-02-02T16:52:59.223Z,52.87
2023-02-02T16:55:48.788Z,53.08
2023-02-02T16:58:27.202Z,53.38
2023-02-02T17:01:14.992Z,53.57
2023-02-02T17:03:53.105Z,53.54
2023-02-02T17:06:51.737Z,53.99
2023-02-02T17:09:53.591Z,55.29
2023-02-02T17:12:34.465Z,54.75
2023-02-02T17:15:34.679Z,54.74
2023-02-02T17:18:03.344Z,54.98
2023-02-02T17:20:30.808Z,54.72
2023-02-02T17:23:28.862Z,55.18
2023-02-02T17:25:56.491Z,54.94
2023-02-02T17:28:26.158Z,54.95
2023-02-02T17:31:00.907Z,54.68
2023-02-02T17:33:28.667Z,55.04
2023-02-02T17:35:56.626Z,55.37
2023-02-02T17:38:25.799Z,55.44
2023-02-02T17:44:40.322Z,55.29
2023-02-02T17:49:14.800Z,56.33
2023-02-02T17:51:52.318Z,56.90
2023-02-02T17:54:46.998Z,57.53
2023-02-02T17:57:15.324Z,57.98
2023-02-02T17:59:42.177Z,58.46
2023-02-02T18:02:14.640Z,58.20
2023-02-02T18:04:45.433Z,58.84
2023-02-02T18:07:12.588Z,58.54
2023-02-02T18:09:39.424Z,57.93
2023-02-02T18:12:06.828Z,58.49
2023-02-02T18:14:33.658Z,58.60
2023-02-02T18:17:00.544Z,58.91
2023-02-02T18:19:27.716Z,59.03
2023-02-02T18:21:55.879Z,59.30
2023-02-02T18:24:23.024Z,59.57
2023-02-02T18:26:49.960Z,59.19
2023-02-02T18:29:16.845Z,59.35
2023-02-02T18:31:43.811Z,59.71
2023-02-02T18:34:10.852Z,60.32
2023-02-02T18:36:37.741Z,60.67
2023-02-02T18:39:06.154Z,60.74
2023-02-02T18:41:33.078Z,60.47
2023-02-02T18:44:00.013Z,60.39
2023-02-02T18:46:27.023Z,59.73
2023-02-02T18:48:55.574Z,59.53
2023-02-02T18:51:22.442Z,59.60
2023-02-02T18:53:49.705Z,59.95
2023-02-02T18:56:17.948Z,60.01
2023-02-02T18:58:44.850Z,59.90
2023-02-02T19:01:15.307Z,60.89
2023-02-02T19:03:47.002Z,61.14
2023-02-02T19:06:32.196Z,61.08
2023-02-02T19:08:59.104Z,61.30
2023-02-02T19:11:39.121Z,61.71
2023-02-02T19:14:13.586Z,62.19
2023-02-02T19:16:42.086Z,62.46
2023-02-02T19:19:22.892Z,62.99
2023-02-02T19:21:54.556Z,62.84
2023-02-02T19:24:21.769Z,63.45
2023-02-02T19:26:50.907Z,62.98
2023-02-02T19:29:21.332Z,63.41
2023-02-02T19:31:52.579Z,63.68
2023-02-02T19:34:22.226Z,62.87
2023-02-02T19:36:51.064Z,63.03
2023-02-02T19:39:26.902Z,62.25
2023-02-02T19:41:59.767Z,63.57
2023-02-02T19:44:31.302Z,62.77
2023-02-02T19:46:59.838Z,62.92
2023-02-02T19:49:32.692Z,63.99
2023-02-02T19:52:03.681Z,64.28
2023-02-02T19:54:35.145Z,64.10
2023-02-02T19:57:16.794Z,64.40
2023-02-02T19:59:49.795Z,64.46
2023-02-02T20:02:46.145Z,64.22
2023-02-02T20:05:20.628Z,64.42
2023-02-02T20:07:52.158Z,64.45
2023-02-02T20:10:22.845Z,64.28
2023-02-02T20:12:52.214Z,64.44
2023-02-02T20:15:31.993Z,64.48
2023-02-02T20:18:01.727Z,65.14
2023-02-02T20:20:37.522Z,64.53
2023-02-02T20:23:20.030Z,65.31
2023-02-02T20:25:46.947Z,65.29
2023-02-02T20:28:33.984Z,65.78
2023-02-02T20:31:04.806Z,65.77
2023-02-02T20:33:33.168Z,65.62
2023-02-02T20:36:02.447Z,65.92
2023-02-02T20:38:39.137Z,65.87
2023-02-02T20:41:06.298Z,66.06
2023-02-02T20:43:35.710Z,66.31
2023-02-02T20:46:02.854Z,66.10
2023-02-02T20:48:30.291Z,65.86
2023-02-02T20:50:57.266Z,66.03
2023-02-02T20:53:24.134Z,65.37
2023-02-02T20:55:56.646Z,65.67
2023-02-02T20:58:24.112Z,65.55
2023-02-02T21:00:52.460Z,65.72
2023-02-02T21:03:20.142Z,65.16
2023-02-02T21:05:47.321Z,65.53
2023-02-02T21:08:14.169Z,65.57
2023-02-02T21:10:41.078Z,65.21
2023-02-02T21:13:07.935Z,64.63
2023-02-02T21:15:34.786Z,64.94
2023-02-02T21:18:02.961Z,65.04
2023-02-02T21:20:29.928Z,65.84
2023-02-02T21:22:56.783Z,65.54
2023-02-02T21:25:23.664Z,64.99
2023-02-02T21:27:50.547Z,64.91
2023-02-02T21:30:18.359Z,64.90
2023-02-02T21:32:45.462Z,64.83
2023-02-02T21:35:14.976Z,64.25
2023-02-02T21:37:44.014Z,64.26
2023-02-02T21:40:19.345Z,64.08
2023-02-02T21:42:49.415Z,63.94
2023-02-02T21:45:33.469Z,63.94
2023-02-02T21:48:05.045Z,64.21
2023-02-02T21:50:39.924Z,64.25
2023-02-02T21:53:19.975Z,63.94
2023-02-02T21:55:52.791Z,63.61
2023-02-02T21:58:25.456Z,63.83
2023-02-02T22:00:54.052Z,63.76
2023-02-02T22:03:31.739Z,63.39
2023-02-02T22:06:22.782Z,63.96
2023-02-02T22:08:50.855Z,63.97
2023-02-02T22:11:24.901Z,64.47
2023-02-02T22:13:53.900Z,64.23
2023-02-02T22:16:20.929Z,64.48
2023-02-02T22:18:48.260Z,64.24
2023-02-02T22:21:20.581Z,64.23
2023-02-02T22:23:48.024Z,64.29
2023-02-02T22:26:33.112Z,64.09
2023-02-02T22:29:02.393Z,64.08
2023-02-02T22:31:29.316Z,63.93
2023-02-02T22:33:56.213Z,63.82
2023-02-02T22:36:24.450Z,64.14
2023-02-02T22:38:51.388Z,64.04
2023-02-02T22:41:18.420Z,64.10
2023-02-02T22:43:45.311Z,63.85
2023-02-02T22:46:12.192Z,63.83
2023-02-02T22:48:39.084Z,63.73
2023-02-02T22:51:06.115Z,63.77
2023-02-02T22:53:34.599Z,63.39
2023-02-02T22:56:01.458Z,63.29
2023-02-02T22:58:28.307Z,63.39
2023-02-02T23:00:55.871Z,63.58
2023-02-02T23:03:22.796Z,63.37
2023-02-02T23:05:49.675Z,63.63
2023-02-02T23:08:16.520Z,63.11
2023-02-02T23:10:44.697Z,62.87
2023-02-02T23:13:11.588Z,63.03
2023-02-02T23:15:38.571Z,62.84
2023-02-02T23:18:05.587Z,62.60
2023-02-02T23:20:32.761Z,62.43
2023-02-02T23:22:59.641Z,62.51
2023-02-02T23:25:26.537Z,62.30
2023-02-02T23:27:54.863Z,62.23
2023-02-02T23:30:22.117Z,62.23
2023-02-02T23:32:49.023Z,61.89
2023-02-02T23:35:16.093Z,61.86
2023-02-02T23:37:43.019Z,61.66
2023-02-02T23:40:11.982Z,61.43
2023-02-02T23:42:38.920Z,61.43
2023-02-02T23:45:08.529Z,61.17
2023-02-02T23:47:35.607Z,61.05
2023-02-02T23:50:06.364Z,61.04
2023-02-02T23:52:34.725Z,60.96
2023-02-02T23:55:02.732Z,60.90
2023-02-02T23:57:30.482Z,60.78
2023-02-02T23:59:57.439Z,60.70
